createdAt,value
2018-06-21T00:02:09.735Z,6.97
2018-06-21T00:04:40.668Z,8.23
2018-06-21T00:07:12.823Z,10.07
2018-06-21T00:09:52.805Z,7.90
2018-06-21T00:12:23.425Z,7.40
2018-06-21T00:19:05.858Z,6.93
2018-06-21T00:22:09.383Z,10.13
2018-06-21T00:24:40.451Z,11.60
2018-06-21T00:34:01.574Z,10.97
2018-06-21T00:36:35.846Z,8.40
2018-06-21T00:39:14.237Z,9.20
2018-06-21T00:44:37.366Z,9.63
2018-06-21T00:47:37.752Z,9.63
2018-06-21T00:54:52.674Z,9.30
2018-06-21T00:57:26.314Z,12.33
2018-06-21T00:59:57.504Z,12.17
2018-06-21T01:02:28.586Z,11.77
2018-06-21T01:04:57.496Z,11.20
2018-06-21T01:07:26.557Z,10.83
2018-06-21T01:09:55.314Z,10.20
2018-06-21T01:12:29.117Z,12.53
2018-06-21T01:14:58.203Z,10.13
2018-06-21T01:17:30.737Z,11.47
2018-06-21T01:19:59.152Z,9.27
2018-06-21T01:22:32.386Z,9.30
2018-06-21T01:25:01.103Z,12.43
2018-06-21T01:27:42.134Z,11.90
2018-06-21T01:30:10.892Z,10.83
2018-06-21T01:32:39.726Z,12.20
2018-06-21T01:35:08.567Z,10.40
2018-06-21T01:37:38.198Z,14.57
2018-06-21T01:40:07.378Z,13.00
2018-06-21T01:42:40.290Z,11.37
2018-06-21T01:45:09.174Z,13.40
2018-06-21T01:47:42.276Z,9.80
2018-06-21T01:50:10.826Z,10.90
2018-06-21T01:52:44.317Z,11.63
2018-06-21T01:55:13.138Z,12.83
2018-06-21T01:57:46.498Z,12.63
2018-06-21T02:00:15.643Z,15.50
2018-06-21T02:02:48.920Z,11.40
2018-06-21T02:05:17.771Z,11.90
2018-06-21T02:07:50.778Z,12.37
2018-06-21T02:10:19.614Z,12.97
2018-06-21T02:12:53.074Z,11.30
2018-06-21T02:15:21.487Z,14.80
2018-06-21T02:17:54.111Z,15.57
2018-06-21T02:20:22.555Z,11.07
2018-06-21T02:22:50.966Z,13.33
2018-06-21T02:25:20.139Z,14.67
2018-06-21T02:27:48.954Z,12.93
2018-06-21T02:30:18.827Z,13.17
2018-06-21T02:32:47.958Z,10.77
2018-06-21T02:35:16.812Z,10.57
2018-06-21T02:37:45.226Z,12.73
2018-06-21T02:40:14.715Z,10.87
2018-06-21T02:42:43.532Z,15.77
2018-06-21T02:45:12.685Z,11.13
2018-06-21T02:47:42.547Z,10.80
2018-06-21T02:50:12.102Z,10.40
2018-06-21T02:52:40.553Z,10.90
2018-06-21T02:55:13.383Z,10.20
2018-06-21T02:57:43.423Z,9.67
2018-06-21T03:00:15.122Z,11.00
2018-06-21T03:02:44.071Z,9.77
2018-06-21T03:05:16.449Z,11.33
2018-06-21T03:07:45.262Z,9.57
2018-06-21T03:10:17.767Z,8.83
2018-06-21T03:12:46.296Z,12.67
2018-06-21T03:15:19.180Z,8.43
2018-06-21T03:17:48.205Z,9.97
2018-06-21T03:22:51.843Z,7.50
2018-06-21T03:25:24.946Z,10.80
2018-06-21T03:27:53.794Z,8.20
2018-06-21T03:30:36.494Z,6.83
2018-06-21T03:33:05.427Z,11.87
2018-06-21T03:35:33.899Z,9.40
2018-06-21T03:38:02.627Z,8.70
2018-06-21T03:40:33.950Z,8.33
2018-06-21T03:43:02.378Z,8.90
2018-06-21T03:45:34.883Z,7.83
2018-06-21T03:48:03.331Z,9.23
2018-06-21T03:50:44.853Z,10.50
2018-06-21T03:53:13.940Z,10.63
2018-06-21T03:55:42.377Z,9.00
2018-06-21T03:58:11.219Z,10.20
2018-06-21T04:00:40.686Z,9.63
2018-06-21T04:03:09.580Z,11.83
2018-06-21T04:05:51.058Z,9.90
2018-06-21T04:08:20.195Z,10.57
2018-06-21T04:10:49.058Z,7.40
2018-06-21T04:13:17.851Z,10.47
2018-06-21T04:15:47.121Z,9.40
2018-06-21T04:18:15.975Z,7.83
2018-06-21T04:20:57.420Z,11.40
2018-06-21T04:23:26.514Z,9.13
2018-06-21T04:25:55.322Z,7.10
2018-06-21T04:28:23.777Z,10.77
2018-06-21T04:30:55.036Z,12.23
2018-06-21T04:33:23.992Z,10.77
2018-06-21T04:35:55.818Z,10.70
2018-06-21T04:38:25.831Z,10.60
2018-06-21T04:41:08.697Z,11.87
2018-06-21T04:43:37.930Z,10.70
2018-06-21T04:46:06.755Z,11.53
2018-06-21T04:48:35.974Z,9.43
2018-06-21T04:51:05.123Z,11.97
2018-06-21T04:53:33.802Z,16.03
2018-06-21T04:56:04.270Z,12.87
2018-06-21T04:58:32.815Z,13.33
2018-06-21T05:01:05.915Z,14.27
2018-06-21T05:03:35.260Z,16.33
2018-06-21T05:06:10.747Z,17.03
2018-06-21T05:08:40.431Z,16.23
2018-06-21T05:11:12.252Z,13.80
2018-06-21T05:13:41.244Z,17.60
2018-06-21T05:16:14.599Z,16.17
2018-06-21T05:18:43.502Z,15.93
2018-06-21T05:21:15.649Z,16.27
2018-06-21T05:23:44.463Z,18.03
2018-06-21T05:26:17.356Z,17.03
2018-06-21T05:28:45.764Z,15.93
2018-06-21T05:31:18.436Z,16.20
2018-06-21T05:33:46.837Z,12.40
2018-06-21T05:36:19.755Z,17.03
2018-06-21T05:38:48.990Z,14.40
2018-06-21T05:41:22.198Z,15.93
2018-06-21T05:43:51.441Z,16.90
2018-06-21T05:46:24.319Z,17.00
2018-06-21T05:48:52.789Z,15.87
2018-06-21T05:51:26.474Z,16.57
2018-06-21T05:53:55.265Z,15.23
2018-06-21T05:56:27.603Z,19.27
2018-06-21T05:58:56.571Z,14.73
2018-06-21T06:01:29.313Z,17.70
2018-06-21T06:03:58.237Z,18.17
2018-06-21T06:06:31.478Z,22.37
2018-06-21T06:09:00.118Z,22.43
2018-06-21T06:11:34.330Z,26.30
2018-06-21T06:14:03.321Z,21.67
2018-06-21T06:16:35.047Z,20.60
2018-06-21T06:19:03.620Z,20.93
2018-06-21T06:21:36.617Z,21.07
2018-06-21T06:24:05.836Z,20.53
2018-06-21T06:26:40.450Z,23.60
2018-06-21T06:29:09.141Z,20.00
2018-06-21T06:31:42.404Z,21.00
2018-06-21T06:34:11.822Z,19.93
2018-06-21T06:36:44.461Z,21.20
2018-06-21T06:39:16.761Z,21.20
2018-06-21T06:41:46.457Z,22.20
2018-06-21T06:44:15.384Z,18.30
2018-06-21T06:46:56.493Z,20.97
2018-06-21T06:49:26.007Z,21.40
2018-06-21T06:51:55.386Z,23.03
2018-06-21T06:54:24.143Z,22.07
2018-06-21T06:56:53.504Z,22.67
2018-06-21T06:59:22.614Z,24.53
2018-06-21T07:01:56.014Z,24.37
2018-06-21T07:04:28.714Z,23.57
2018-06-21T07:06:58.221Z,23.83
2018-06-21T07:09:27.335Z,25.83
2018-06-21T07:11:59.023Z,24.43
2018-06-21T07:14:27.647Z,28.63
2018-06-21T07:17:01.446Z,24.77
2018-06-21T07:19:31.239Z,25.63
2018-06-21T07:22:03.214Z,27.23
2018-06-21T07:24:31.852Z,26.70
2018-06-21T07:27:06.762Z,26.63
2018-06-21T07:29:35.574Z,24.37
2018-06-21T07:32:08.183Z,25.77
2018-06-21T07:34:36.884Z,28.23
2018-06-21T07:37:09.951Z,24.53
2018-06-21T07:39:38.786Z,22.93
2018-06-21T07:42:20.431Z,22.60
2018-06-21T07:44:49.956Z,23.90
2018-06-21T07:47:18.804Z,19.30
2018-06-21T07:49:47.235Z,20.70
2018-06-21T07:52:18.029Z,19.97
2018-06-21T07:54:47.692Z,17.60
2018-06-21T07:57:18.118Z,17.53
2018-06-21T07:59:46.642Z,15.33
2018-06-21T08:02:21.196Z,11.73
2018-06-21T08:04:49.818Z,14.70
2018-06-21T08:07:22.718Z,13.60
2018-06-21T08:09:53.418Z,7.40
2018-06-21T08:12:25.682Z,7.07
2018-06-21T08:14:54.530Z,9.60
2018-06-21T08:17:26.236Z,9.57
2018-06-21T08:19:55.334Z,8.57
2018-06-21T08:22:36.545Z,10.33
2018-06-21T08:25:05.093Z,6.53
2018-06-21T08:27:33.969Z,6.97
2018-06-21T08:30:02.767Z,11.20
2018-06-21T08:32:31.611Z,7.83
2018-06-21T08:35:00.706Z,9.77
2018-06-21T08:37:34.107Z,5.77
2018-06-21T08:40:05.389Z,8.67
2018-06-21T08:42:35.185Z,6.77
2018-06-21T08:45:03.666Z,7.73
2018-06-21T08:47:39.576Z,4.93
2018-06-21T08:50:08.843Z,4.90
2018-06-21T08:52:40.676Z,5.93
2018-06-21T08:55:09.490Z,7.50
2018-06-21T08:57:43.334Z,7.87
2018-06-21T09:00:12.171Z,6.27
2018-06-21T09:02:43.857Z,5.33
2018-06-21T09:05:13.171Z,5.40
2018-06-21T09:07:46.647Z,5.63
2018-06-21T09:10:15.471Z,5.30
2018-06-21T09:12:48.373Z,7.20
2018-06-21T09:15:17.465Z,11.03
2018-06-21T09:17:49.379Z,12.80
2018-06-21T09:20:18.693Z,13.93
2018-06-21T09:22:52.093Z,5.97
2018-06-21T09:25:21.162Z,8.07
2018-06-21T09:27:56.706Z,7.87
2018-06-21T09:30:25.845Z,10.30
2018-06-21T09:32:59.497Z,7.07
2018-06-21T09:35:28.358Z,8.73
2018-06-21T09:38:04.238Z,6.23
2018-06-21T09:40:38.716Z,5.30
2018-06-21T09:43:13.698Z,6.67
2018-06-21T09:45:47.989Z,6.20
2018-06-21T09:48:23.482Z,4.30
2018-06-21T09:50:53.085Z,6.23
2018-06-21T09:53:21.489Z,2.93
2018-06-21T09:55:51.427Z,5.80
2018-06-21T09:58:23.617Z,6.67
2018-06-21T10:00:57.698Z,7.67
2018-06-21T10:03:30.764Z,5.83
2018-06-21T10:05:59.628Z,6.33
2018-06-21T10:08:29.536Z,5.13
2018-06-21T10:11:00.093Z,5.77
2018-06-21T10:13:29.088Z,9.10
2018-06-21T10:15:59.105Z,9.30
2018-06-21T10:18:29.997Z,8.57
2018-06-21T10:20:58.494Z,8.77
2018-06-21T10:23:27.646Z,11.90
2018-06-21T10:25:57.345Z,10.43
2018-06-21T10:28:25.744Z,9.70
2018-06-21T10:30:55.641Z,8.40
2018-06-21T10:33:25.197Z,8.67
2018-06-21T10:35:54.187Z,5.53
2018-06-21T10:38:25.223Z,8.90
2018-06-21T10:40:54.595Z,6.30
2018-06-21T10:43:27.171Z,4.33
2018-06-21T10:45:56.250Z,5.30
2018-06-21T10:48:26.359Z,9.43
2018-06-21T10:50:55.440Z,9.20
2018-06-21T10:53:31.436Z,6.27
2018-06-21T10:56:00.225Z,11.03
2018-06-21T10:58:33.173Z,8.83
2018-06-21T11:01:01.990Z,8.23
2018-06-21T11:03:33.234Z,8.87
2018-06-21T11:06:01.861Z,10.27
2018-06-21T11:08:34.576Z,6.83
2018-06-21T11:11:04.488Z,5.37
2018-06-21T11:13:46.016Z,7.10
2018-06-21T11:16:16.230Z,6.07
2018-06-21T11:18:45.084Z,6.30
2018-06-21T11:21:14.232Z,7.10
2018-06-21T11:23:45.202Z,5.83
2018-06-21T11:26:15.068Z,8.60
2018-06-21T11:28:46.363Z,4.60
2018-06-21T11:31:15.182Z,8.47
2018-06-21T11:33:46.884Z,8.00
2018-06-21T11:36:17.928Z,3.93
2018-06-21T11:38:50.373Z,5.33
2018-06-21T11:41:20.089Z,4.97
2018-06-21T11:43:49.752Z,8.00
2018-06-21T11:46:19.201Z,7.90
2018-06-21T11:48:51.539Z,6.50
2018-06-21T11:51:21.170Z,3.97
2018-06-21T11:53:54.437Z,5.17
2018-06-21T11:56:23.299Z,4.17
2018-06-21T11:58:58.284Z,2.47
2018-06-21T12:01:27.367Z,4.10
2018-06-21T12:04:01.683Z,7.90
2018-06-21T12:06:30.298Z,4.30
2018-06-21T12:09:02.755Z,4.67
2018-06-21T12:11:32.169Z,9.40
2018-06-21T12:14:06.214Z,4.60
2018-06-21T12:16:35.127Z,5.20
2018-06-21T12:19:09.459Z,6.73
2018-06-21T12:21:39.914Z,4.57
2018-06-21T12:24:09.084Z,6.23
2018-06-21T12:26:37.883Z,4.73
2018-06-21T12:29:13.252Z,4.57
2018-06-21T12:31:43.274Z,9.70
2018-06-21T12:34:14.539Z,3.20
2018-06-21T12:39:20.100Z,9.33
2018-06-21T12:41:49.796Z,5.30
2018-06-21T12:44:18.346Z,6.27
2018-06-21T12:46:47.882Z,4.13
2018-06-21T12:49:23.139Z,6.50
2018-06-21T12:51:52.120Z,5.53
2018-06-21T12:54:23.120Z,3.40
2018-06-21T12:56:53.171Z,5.83
2018-06-21T12:59:25.176Z,6.07
2018-06-21T13:01:54.715Z,6.00
2018-06-21T13:04:26.597Z,11.57
2018-06-21T13:09:41.526Z,4.50
2018-06-21T13:13:18.247Z,6.93
2018-06-21T13:15:47.723Z,6.53
2018-06-21T13:18:16.177Z,6.07
2018-06-21T13:20:45.546Z,6.27
2018-06-21T13:23:14.190Z,4.50
2018-06-21T13:25:43.238Z,5.57
2018-06-21T13:28:20.039Z,3.97
2018-06-21T13:30:49.000Z,10.53
2018-06-21T13:33:19.094Z,9.73
2018-06-21T13:35:48.302Z,8.17
2018-06-21T13:38:17.019Z,4.97
2018-06-21T13:40:46.018Z,7.60
2018-06-21T13:43:15.026Z,10.13
2018-06-21T13:45:45.606Z,4.03
2018-06-21T13:48:17.818Z,6.47
2018-06-21T13:50:47.815Z,5.17
2018-06-21T13:53:16.522Z,6.00
2018-06-21T13:55:50.686Z,7.30
2018-06-21T13:58:20.689Z,10.70
2018-06-21T14:00:49.644Z,5.23
2018-06-21T14:03:18.758Z,9.27
2018-06-21T14:05:51.840Z,7.53
2018-06-21T14:08:20.797Z,6.37
2018-06-21T14:10:55.266Z,4.17
2018-06-21T14:13:24.185Z,5.10
2018-06-21T14:16:05.981Z,7.67
2018-06-21T14:18:35.700Z,5.57
2018-06-21T14:21:07.183Z,6.70
2018-06-21T14:23:36.776Z,10.57
2018-06-21T14:26:07.099Z,6.53
2018-06-21T14:28:35.816Z,8.33
2018-06-21T14:31:05.401Z,5.77
2018-06-21T14:33:35.037Z,6.77
2018-06-21T14:36:07.996Z,5.47
2018-06-21T14:38:37.022Z,7.67
2018-06-21T14:41:09.829Z,6.33
2018-06-21T14:43:38.882Z,5.37
2018-06-21T14:46:13.209Z,9.63
2018-06-21T14:48:43.327Z,6.73
2018-06-21T14:51:14.447Z,6.33
2018-06-21T14:53:43.207Z,7.17
2018-06-21T14:56:16.629Z,3.70
2018-06-21T14:58:45.611Z,6.30
2018-06-21T15:01:17.845Z,6.17
2018-06-21T15:03:46.628Z,9.10
2018-06-21T15:06:21.220Z,3.97
2018-06-21T15:08:50.605Z,3.47
2018-06-21T15:11:22.541Z,5.37
2018-06-21T15:13:51.856Z,7.83
2018-06-21T15:16:24.616Z,6.00
2018-06-21T15:18:53.344Z,6.03
2018-06-21T15:21:25.541Z,4.97
2018-06-21T15:23:54.600Z,6.07
2018-06-21T15:26:36.436Z,8.63
2018-06-21T15:29:05.354Z,2.27
2018-06-21T15:31:35.240Z,9.43
2018-06-21T15:34:05.462Z,4.37
2018-06-21T15:36:35.876Z,7.33
2018-06-21T15:39:15.787Z,4.50
2018-06-21T15:41:45.614Z,5.33
2018-06-21T15:44:14.190Z,3.77
2018-06-21T15:46:43.154Z,3.20
2018-06-21T15:49:13.387Z,5.93
2018-06-21T15:54:15.949Z,5.07
2018-06-21T15:56:44.810Z,4.40
2018-06-21T15:59:14.199Z,5.83
2018-06-21T16:01:43.297Z,6.60
2018-06-21T16:04:12.021Z,5.53
2018-06-21T16:06:46.097Z,4.80
2018-06-21T16:09:15.104Z,5.73
2018-06-21T16:11:50.133Z,6.50
2018-06-21T16:14:19.492Z,5.17
2018-06-21T16:16:52.614Z,10.90
2018-06-21T16:19:21.847Z,4.03
2018-06-21T16:21:53.357Z,7.37
2018-06-21T16:24:22.825Z,3.77
2018-06-21T16:26:55.907Z,4.00
2018-06-21T16:29:24.740Z,7.47
2018-06-21T16:31:58.618Z,8.10
2018-06-21T16:34:28.170Z,7.23
2018-06-21T16:37:00.313Z,5.43
2018-06-21T16:39:29.369Z,5.03
2018-06-21T16:42:01.094Z,7.13
2018-06-21T16:44:35.451Z,5.63
2018-06-21T16:47:04.047Z,4.43
2018-06-21T16:49:33.094Z,3.60
2018-06-21T16:52:05.707Z,4.97
2018-06-21T16:54:34.606Z,4.87
2018-06-21T16:57:08.142Z,5.73
2018-06-21T16:59:37.711Z,3.20
2018-06-21T17:02:11.189Z,4.57
2018-06-21T17:04:40.805Z,6.47
2018-06-21T17:07:21.999Z,1.70
2018-06-21T17:09:52.680Z,6.03
2018-06-21T17:12:22.404Z,3.77
2018-06-21T17:14:51.796Z,3.10
2018-06-21T17:17:23.186Z,5.70
2018-06-21T17:19:52.542Z,4.07
2018-06-21T17:22:21.534Z,4.57
2018-06-21T17:24:50.423Z,4.70
2018-06-21T17:27:21.510Z,3.17
2018-06-21T17:29:50.260Z,6.13
2018-06-21T17:32:33.684Z,3.80
2018-06-21T17:35:07.209Z,3.43
2018-06-21T17:37:38.706Z,7.10
2018-06-21T17:40:07.389Z,5.33
2018-06-21T17:42:36.229Z,6.23
2018-06-21T17:45:05.025Z,3.53
2018-06-21T17:50:01.542Z,6.30
2018-06-21T17:52:31.434Z,7.77
2018-06-21T17:55:00.174Z,1.40
2018-06-21T17:57:32.565Z,7.03
2018-06-21T18:00:03.337Z,4.43
2018-06-21T18:02:34.201Z,7.83
2018-06-21T18:05:03.516Z,6.93
2018-06-21T18:07:44.898Z,6.07
2018-06-21T18:10:13.513Z,5.27
2018-06-21T18:12:43.508Z,2.63
2018-06-21T18:15:13.303Z,7.57
2018-06-21T18:17:44.442Z,4.73
2018-06-21T18:20:16.382Z,6.73
2018-06-21T18:22:46.234Z,6.97
2018-06-21T18:25:16.248Z,8.73
2018-06-21T18:27:46.201Z,4.10
2018-06-21T18:30:15.741Z,5.40
2018-06-21T18:32:48.531Z,5.63
2018-06-21T18:35:17.357Z,8.23
2018-06-21T18:37:53.676Z,4.77
2018-06-21T18:40:27.530Z,4.33
2018-06-21T18:42:56.658Z,4.47
2018-06-21T18:45:25.498Z,10.07
2018-06-21T18:47:55.766Z,6.33
2018-06-21T18:52:58.517Z,6.57
2018-06-21T18:55:27.315Z,6.53
2018-06-21T18:57:59.073Z,7.23
2018-06-21T19:00:28.327Z,4.83
2018-06-21T19:03:11.090Z,5.43
2018-06-21T19:05:41.169Z,6.97
2018-06-21T19:08:17.197Z,4.60
2018-06-21T19:10:51.174Z,4.13
2018-06-21T19:13:19.618Z,6.50
2018-06-21T19:15:48.621Z,5.20
2018-06-21T19:18:18.653Z,6.43
2018-06-21T19:20:47.749Z,7.60
2018-06-21T19:23:17.654Z,7.37
2018-06-21T19:25:46.406Z,6.10
2018-06-21T19:28:16.307Z,7.63
2018-06-21T19:30:48.757Z,3.50
2018-06-21T19:33:26.461Z,8.73
2018-06-21T19:35:55.050Z,6.67
2018-06-21T19:38:25.071Z,9.40
2018-06-21T19:40:55.187Z,5.67
2018-06-21T19:43:25.606Z,7.57
2018-06-21T19:45:55.635Z,6.43
2018-06-21T19:48:24.488Z,6.30
2018-06-21T19:50:53.543Z,8.40
2018-06-21T19:53:23.854Z,5.97
2018-06-21T19:55:52.361Z,2.50
2018-06-21T19:58:25.678Z,7.60
2018-06-21T20:00:56.194Z,9.37
2018-06-21T20:03:28.234Z,7.37
2018-06-21T20:05:58.754Z,11.73
2018-06-21T20:08:31.195Z,9.27
2018-06-21T20:11:04.908Z,10.57
2018-06-21T20:13:44.651Z,10.73
2018-06-21T20:16:13.963Z,6.40
2018-06-21T20:18:44.184Z,11.03
2018-06-21T20:21:17.695Z,4.47
2018-06-21T20:23:48.624Z,13.27
2018-06-21T20:26:19.774Z,6.67
2018-06-21T20:28:50.151Z,8.00
2018-06-21T20:31:19.263Z,6.87
2018-06-21T20:33:51.312Z,7.90
2018-06-21T20:36:25.292Z,5.17
2018-06-21T20:38:56.118Z,4.53
2018-06-21T20:41:26.633Z,7.17
2018-06-21T20:43:56.106Z,5.13
2018-06-21T20:46:27.822Z,7.17
2018-06-21T20:49:00.374Z,6.83
2018-06-21T20:51:33.574Z,5.73
2018-06-21T20:54:04.402Z,6.00
2018-06-21T20:56:38.603Z,10.80
2018-06-21T20:59:08.097Z,3.27
2018-06-21T21:01:41.689Z,8.07
2018-06-21T21:04:12.181Z,9.17
2018-06-21T21:09:22.493Z,6.17
2018-06-21T21:11:55.261Z,4.40
2018-06-21T21:14:25.187Z,7.63
2018-06-21T21:17:07.104Z,6.63
2018-06-21T21:19:36.143Z,4.90
2018-06-21T21:22:08.382Z,4.37
2018-06-21T21:24:38.043Z,7.73
2018-06-21T21:27:09.626Z,5.50
2018-06-21T21:29:44.786Z,4.93
2018-06-21T21:32:14.204Z,3.60
2018-06-21T21:34:43.676Z,7.67
2018-06-21T21:37:13.696Z,9.00
2018-06-21T21:39:43.641Z,5.77
2018-06-21T21:42:14.461Z,7.83
2018-06-21T21:44:44.219Z,5.03
2018-06-21T21:47:26.090Z,7.10
2018-06-21T21:49:56.482Z,4.30
2018-06-21T21:52:33.213Z,6.80
2018-06-21T21:55:05.362Z,11.10
2018-06-21T21:57:35.360Z,6.13
2018-06-21T22:00:15.226Z,7.00
2018-06-21T22:02:46.606Z,8.27
2018-06-21T22:07:56.442Z,9.83
2018-06-21T22:10:25.901Z,5.07
2018-06-21T22:12:55.663Z,10.83
2018-06-21T22:15:24.645Z,7.50
2018-06-21T22:17:55.853Z,6.87
2018-06-21T22:20:25.714Z,7.23
2018-06-21T22:22:55.327Z,10.17
2018-06-21T22:25:28.418Z,6.97
2018-06-21T22:27:57.885Z,9.13
2018-06-21T22:30:29.303Z,6.97
2018-06-21T22:32:59.097Z,10.57
2018-06-21T22:35:30.800Z,8.63
2018-06-21T22:37:59.507Z,9.63
2018-06-21T22:40:33.166Z,7.00
2018-06-21T22:43:03.483Z,10.40
2018-06-21T22:45:35.718Z,8.37
2018-06-21T22:48:05.032Z,5.83
2018-06-21T22:50:35.896Z,8.43
2018-06-21T22:53:05.937Z,10.47
2018-06-21T22:55:48.175Z,6.93
2018-06-21T22:58:17.236Z,7.17
2018-06-21T23:00:46.226Z,11.43
2018-06-21T23:03:15.290Z,4.57
2018-06-21T23:05:44.178Z,13.00
2018-06-21T23:08:12.633Z,11.27
2018-06-21T23:10:44.983Z,8.60
2018-06-21T23:13:14.204Z,12.40
2018-06-21T23:15:57.163Z,8.83
2018-06-21T23:18:37.152Z,9.37
2018-06-21T23:21:06.130Z,8.47
2018-06-21T23:23:35.254Z,12.37
2018-06-21T23:26:04.085Z,15.23
2018-06-21T23:28:32.811Z,11.10
2018-06-21T23:31:03.607Z,9.13
2018-06-21T23:33:33.690Z,8.43
2018-06-21T23:36:02.649Z,9.00
2018-06-21T23:38:31.983Z,7.37
2018-06-21T23:41:00.826Z,4.93
2018-06-21T23:43:29.833Z,7.53
2018-06-21T23:45:59.818Z,8.33
2018-06-21T23:48:28.631Z,9.87
2018-06-21T23:51:01.063Z,9.63
2018-06-21T23:53:30.573Z,8.80
2018-06-21T23:56:04.590Z,6.87
2018-06-21T23:58:33.629Z,7.87
